Aviation Digital Data Service (ADDS)

Output produced by METARs form (1812 UTC 14 August 2018)
found at http://www.aviationweather.gov/adds/metars/
 
LDSB 141400Z 34005KT 260V030 9999 FEW025 SCT035 19/15 Q1014
TAF LDSB 141125Z 1412/1512 30009KT 9999 FEW025 SCT027 TX27/1511Z TN22/1421Z 
     PROB40 
     TEMPO 1412/1415 30018G30KT 2000 +TSRA FEW017CB BKN020 
     PROB30 
     TEMPO 1419/1500 VRB18G30KT -TSRA FEW017CB SCT020 
     TEMPO 1500/1506 04010KT
       
LDDU 141800Z 04010KT 360V070 CAVOK 28/16 Q1011 NOSIG
TAF LDDU 141725Z 1418/1518 05005KT 9999 FEW040 TX29/1514Z TN21/1501Z 
     PROB30 
     TEMPO 1420/1503 TS FEW030CB 
     TEMPO 1421/1506 02012KT 
     PROB30 
     TEMPO 1511/1517 05015KT TS FEW040CB 
     BECMG 1512/1514 29008KT 
     BECMG 1516/1518 05010KT
       
LDOS 141800Z 28006KT 260V320 9999 FEW043 21/18 Q1012
TAF LDOS 141725Z 1418/1518 32008KT CAVOK TX26/1512Z TN18/1420Z 
     PROB40 
     TEMPO 1418/1422 30015G25KT 3000 TSRA FEW035CB SCT040
       
LDPL 141800Z 08008KT 9999 FEW020 22/19 Q1012 NOSIG
TAF LDPL 141725Z 1418/1518 06012KT 9999 FEW030 TX28/1513Z TN20/1503Z 
     PROB30 
     TEMPO 1418/1500 TSRA FEW030CB
       
LDRI 141800Z 31004KT 9999 FEW023 SCT053 22/19 Q1013
TAF LDRI 141725Z 1418/1518 VRB02KT 9999 FEW030 TX29/1513Z TN20/1503Z 
     BECMG 1503/1505 05008G18KT
       
LDDU 141800Z 04010KT 360V070 CAVOK 28/16 Q1011 NOSIG
TAF LDDU 141725Z 1418/1518 05005KT 9999 FEW040 TX29/1514Z TN21/1501Z 
     PROB30 
     TEMPO 1420/1503 TS FEW030CB 
     TEMPO 1421/1506 02012KT 
     PROB30 
     TEMPO 1511/1517 05015KT TS FEW040CB 
     BECMG 1512/1514 29008KT 
     BECMG 1516/1518 05010KT
       
LDOS 141800Z 28006KT 260V320 9999 FEW043 21/18 Q1012
TAF LDOS 141725Z 1418/1518 32008KT CAVOK TX26/1512Z TN18/1420Z 
     PROB40 
     TEMPO 1418/1422 30015G25KT 3000 TSRA FEW035CB SCT040
       
LDPL 141800Z 08008KT 9999 FEW020 22/19 Q1012 NOSIG
TAF LDPL 141725Z 1418/1518 06012KT 9999 FEW030 TX28/1513Z TN20/1503Z 
     PROB30 
     TEMPO 1418/1500 TSRA FEW030CB
       
LDRI 141800Z 31004KT 9999 FEW023 SCT053 22/19 Q1013
TAF LDRI 141725Z 1418/1518 VRB02KT 9999 FEW030 TX29/1513Z TN20/1503Z 
     BECMG 1503/1505 05008G18KT
       
LDSB 141400Z 34005KT 260V030 9999 FEW025 SCT035 19/15 Q1014
TAF LDSB 141125Z 1412/1512 30009KT 9999 FEW025 SCT027 TX27/1511Z TN22/1421Z 
     PROB40 
     TEMPO 1412/1415 30018G30KT 2000 +TSRA FEW017CB BKN020 
     PROB30 
     TEMPO 1419/1500 VRB18G30KT -TSRA FEW017CB SCT020 
     TEMPO 1500/1506 04010KT
       
LDSP 141800Z 01003KT 280V070 CAVOK 24/18 Q1012 NOSIG
TAF LDSP 141725Z 1418/1518 32008KT 9999 FEW030 SCT035 TX29/1511Z TN21/1422Z 
     PROB30 
     TEMPO 1421/1500 31015G28KT -TSRA FEW030CB BKN033 
     TEMPO 1501/1507 04008KT 
     TEMPO 1510/1516 23008KT 
     PROB30 
     TEMPO 1515/1518 TS FEW040CB
       
LDZA 141800Z 06004KT 350V100 CAVOK 21/16 Q1013 NOSIG
TAF LDZA 141725Z 1418/1518 05005KT CAVOK TX26/1512Z TN17/1503Z 
     TEMPO 1509/1514 05008KT
       
LDZD 141800Z 04001KT 9999 FEW040 22/18 Q1012 NOSIG
TAF LDZD 141725Z 1418/1518 VRB02KT 9999 FEW030 TX30/1513Z TN20/1503Z 
     BECMG 1502/1504 04006KT 
     BECMG 1504/1506 04012KT
       
LDSP 141800Z 01003KT 280V070 CAVOK 24/18 Q1012 NOSIG
TAF LDSP 141725Z 1418/1518 32008KT 9999 FEW030 SCT035 TX29/1511Z TN21/1422Z 
     PROB30 
     TEMPO 1421/1500 31015G28KT -TSRA FEW030CB BKN033 
     TEMPO 1501/1507 04008KT 
     TEMPO 1510/1516 23008KT 
     PROB30 
     TEMPO 1515/1518 TS FEW040CB
       
LDZD 141800Z 04001KT 9999 FEW040 22/18 Q1012 NOSIG
TAF LDZD 141725Z 1418/1518 VRB02KT 9999 FEW030 TX30/1513Z TN20/1503Z 
     BECMG 1502/1504 04006KT 
     BECMG 1504/1506 04012KT
       
LDZA 141800Z 06004KT 350V100 CAVOK 21/16 Q1013 NOSIG
TAF LDZA 141725Z 1418/1518 05005KT CAVOK TX26/1512Z TN17/1503Z 
     TEMPO 1509/1514 05008KT